sensor_id;sensor_type;location;lat;lon;timestamp;P1;durP1;ratioP1;P2;durP2;ratioP2
1977;SDS011;989;53.016;8.346;2023-09-08T00:01:57;8.80;;;6.80;;
1977;SDS011;989;53.016;8.346;2023-09-08T00:04:24;7.50;;;6.00;;
1977;SDS011;989;53.016;8.346;2023-09-08T00:06:50;7.83;;;7.03;;
1977;SDS011;989;53.016;8.346;2023-09-08T00:09:16;8.97;;;6.87;;
1977;SDS011;989;53.016;8.346;2023-09-08T00:11:42;11.07;;;6.87;;
1977;SDS011;989;53.016;8.346;2023-09-08T00:14:08;10.27;;;8.10;;
1977;SDS011;989;53.016;8.346;2023-09-08T00:16:34;12.80;;;6.90;;
1977;SDS011;989;53.016;8.346;2023-09-08T00:19:00;8.73;;;6.77;;
1977;SDS011;989;53.016;8.346;2023-09-08T00:21:26;8.20;;;6.97;;
1977;SDS011;989;53.016;8.346;2023-09-08T00:23:53;8.40;;;7.00;;
1977;SDS011;989;53.016;8.346;2023-09-08T00:26:20;10.03;;;6.50;;
1977;SDS011;989;53.016;8.346;2023-09-08T00:28:47;9.33;;;7.10;;
1977;SDS011;989;53.016;8.346;2023-09-08T00:31:13;8.77;;;6.73;;
1977;SDS011;989;53.016;8.346;2023-09-08T00:33:39;9.00;;;7.70;;
1977;SDS011;989;53.016;8.346;2023-09-08T00:36:07;9.27;;;6.53;;
1977;SDS011;989;53.016;8.346;2023-09-08T00:38:33;8.10;;;6.97;;
1977;SDS011;989;53.016;8.346;2023-09-08T00:41:00;8.60;;;7.00;;
1977;SDS011;989;53.016;8.346;2023-09-08T00:43:27;9.30;;;7.17;;
1977;SDS011;989;53.016;8.346;2023-09-08T00:45:53;14.63;;;7.63;;
1977;SDS011;989;53.016;8.346;2023-09-08T00:48:20;8.17;;;6.50;;
1977;SDS011;989;53.016;8.346;2023-09-08T00:50:46;8.90;;;7.27;;
1977;SDS011;989;53.016;8.346;2023-09-08T00:53:13;10.07;;;7.80;;
1977;SDS011;989;53.016;8.346;2023-09-08T00:55:40;8.90;;;7.33;;
1977;SDS011;989;53.016;8.346;2023-09-08T00:58:06;8.33;;;7.40;;
1977;SDS011;989;53.016;8.346;2023-09-08T01:00:32;14.90;;;8.20;;
1977;SDS011;989;53.016;8.346;2023-09-08T01:02:59;9.87;;;7.23;;
1977;SDS011;989;53.016;8.346;2023-09-08T01:05:25;9.70;;;7.60;;
1977;SDS011;989;53.016;8.346;2023-09-08T01:07:51;9.50;;;7.47;;
1977;SDS011;989;53.016;8.346;2023-09-08T01:10:18;9.73;;;7.43;;
1977;SDS011;989;53.016;8.346;2023-09-08T01:12:45;10.10;;;8.50;;
1977;SDS011;989;53.016;8.346;2023-09-08T01:15:11;10.23;;;7.50;;
1977;SDS011;989;53.016;8.346;2023-09-08T01:17:37;11.30;;;7.40;;
1977;SDS011;989;53.016;8.346;2023-09-08T01:20:15;8.00;;;6.80;;
1977;SDS011;989;53.016;8.346;2023-09-08T01:23:28;10.10;;;7.57;;
1977;SDS011;989;53.016;8.346;2023-09-08T01:25:50;24.03;;;7.23;;
1977;SDS011;989;53.016;8.346;2023-09-08T01:28:26;12.63;;;8.07;;
1977;SDS011;989;53.016;8.346;2023-09-08T01:30:53;9.37;;;8.00;;
1977;SDS011;989;53.016;8.346;2023-09-08T01:33:19;10.13;;;7.13;;
1977;SDS011;989;53.016;8.346;2023-09-08T01:35:46;11.03;;;7.97;;
1977;SDS011;989;53.016;8.346;2023-09-08T01:38:12;9.57;;;6.53;;
1977;SDS011;989;53.016;8.346;2023-09-08T01:40:38;9.40;;;7.40;;
1977;SDS011;989;53.016;8.346;2023-09-08T01:43:04;10.77;;;7.23;;
1977;SDS011;989;53.016;8.346;2023-09-08T01:45:30;11.40;;;7.80;;
1977;SDS011;989;53.016;8.346;2023-09-08T01:47:56;13.80;;;7.70;;
1977;SDS011;989;53.016;8.346;2023-09-08T01:50:22;12.50;;;8.33;;
1977;SDS011;989;53.016;8.346;2023-09-08T01:52:49;8.67;;;7.43;;
1977;SDS011;989;53.016;8.346;2023-09-08T01:55:16;11.10;;;6.97;;
1977;SDS011;989;53.016;8.346;2023-09-08T01:57:42;10.90;;;7.00;;
1977;SDS011;989;53.016;8.346;2023-09-08T02:00:09;13.00;;;6.83;;
1977;SDS011;989;53.016;8.346;2023-09-08T02:02:36;8.97;;;7.23;;
1977;SDS011;989;53.016;8.346;2023-09-08T02:05:02;10.40;;;6.40;;
1977;SDS011;989;53.016;8.346;2023-09-08T02:07:28;11.87;;;7.17;;
1977;SDS011;989;53.016;8.346;2023-09-08T02:09:56;10.47;;;6.57;;
1977;SDS011;989;53.016;8.346;2023-09-08T02:12:22;9.00;;;7.13;;
1977;SDS011;989;53.016;8.346;2023-09-08T02:14:48;10.13;;;6.83;;
1977;SDS011;989;53.016;8.346;2023-09-08T02:17:14;10.90;;;6.53;;
1977;SDS011;989;53.016;8.346;2023-09-08T02:19:40;9.63;;;6.90;;
1977;SDS011;989;53.016;8.346;2023-09-08T02:22:06;11.63;;;7.83;;
1977;SDS011;989;53.016;8.346;2023-09-08T02:24:32;7.30;;;6.33;;
1977;SDS011;989;53.016;8.346;2023-09-08T02:26:58;10.17;;;7.70;;
1977;SDS011;989;53.016;8.346;2023-09-08T02:29:24;10.47;;;7.50;;
1977;SDS011;989;53.016;8.346;2023-09-08T02:31:50;9.03;;;7.43;;
1977;SDS011;989;53.016;8.346;2023-09-08T02:34:16;12.53;;;8.10;;
1977;SDS011;989;53.016;8.346;2023-09-08T02:36:42;10.93;;;7.20;;
1977;SDS011;989;53.016;8.346;2023-09-08T02:39:09;12.40;;;7.70;;
1977;SDS011;989;53.016;8.346;2023-09-08T02:41:35;9.13;;;7.10;;
1977;SDS011;989;53.016;8.346;2023-09-08T02:44:02;10.47;;;7.10;;
1977;SDS011;989;53.016;8.346;2023-09-08T02:46:28;11.67;;;7.53;;
1977;SDS011;989;53.016;8.346;2023-09-08T02:48:54;10.57;;;7.13;;
1977;SDS011;989;53.016;8.346;2023-09-08T02:51:20;9.30;;;6.47;;
1977;SDS011;989;53.016;8.346;2023-09-08T02:53:46;9.33;;;6.70;;
1977;SDS011;989;53.016;8.346;2023-09-08T02:56:12;9.70;;;7.00;;
1977;SDS011;989;53.016;8.346;2023-09-08T02:58:38;13.60;;;7.97;;
1977;SDS011;989;53.016;8.346;2023-09-08T03:01:14;9.97;;;7.43;;
1977;SDS011;989;53.016;8.346;2023-09-08T03:03:44;9.93;;;8.10;;
1977;SDS011;989;53.016;8.346;2023-09-08T03:06:10;8.60;;;7.70;;
1977;SDS011;989;53.016;8.346;2023-09-08T03:08:36;14.97;;;7.00;;
1977;SDS011;989;53.016;8.346;2023-09-08T03:11:03;10.33;;;7.57;;
1977;SDS011;989;53.016;8.346;2023-09-08T03:13:33;10.50;;;7.53;;
1977;SDS011;989;53.016;8.346;2023-09-08T03:16:04;8.47;;;6.97;;
1977;SDS011;989;53.016;8.346;2023-09-08T03:18:34;11.03;;;8.20;;
1977;SDS011;989;53.016;8.346;2023-09-08T03:21:04;10.20;;;7.00;;
1977;SDS011;989;53.016;8.346;2023-09-08T03:23:37;8.53;;;6.53;;
1977;SDS011;989;53.016;8.346;2023-09-08T03:26:03;12.73;;;7.60;;
1977;SDS011;989;53.016;8.346;2023-09-08T03:28:30;11.20;;;6.50;;
1977;SDS011;989;53.016;8.346;2023-09-08T03:30:57;14.37;;;7.30;;
1977;SDS011;989;53.016;8.346;2023-09-08T03:33:23;10.87;;;6.53;;
1977;SDS011;989;53.016;8.346;2023-09-08T03:35:49;11.90;;;6.80;;
1977;SDS011;989;53.016;8.346;2023-09-08T03:38:15;10.37;;;7.87;;
1977;SDS011;989;53.016;8.346;2023-09-08T03:40:41;9.63;;;7.20;;
1977;SDS011;989;53.016;8.346;2023-09-08T03:43:07;11.37;;;6.40;;
1977;SDS011;989;53.016;8.346;2023-09-08T03:45:33;8.67;;;6.47;;
1977;SDS011;989;53.016;8.346;2023-09-08T03:47:59;12.77;;;7.80;;
1977;SDS011;989;53.016;8.346;2023-09-08T03:50:26;9.60;;;7.50;;
1977;SDS011;989;53.016;8.346;2023-09-08T03:52:52;11.43;;;8.13;;
1977;SDS011;989;53.016;8.346;2023-09-08T03:55:18;16.37;;;8.20;;
1977;SDS011;989;53.016;8.346;2023-09-08T03:57:45;11.50;;;7.80;;
1977;SDS011;989;53.016;8.346;2023-09-08T04:00:11;12.60;;;7.20;;
1977;SDS011;989;53.016;8.346;2023-09-08T04:02:37;11.17;;;8.20;;
1977;SDS011;989;53.016;8.346;2023-09-08T04:05:03;11.07;;;7.43;;
1977;SDS011;989;53.016;8.346;2023-09-08T04:07:30;12.17;;;8.40;;
1977;SDS011;989;53.016;8.346;2023-09-08T04:09:56;11.73;;;8.37;;
1977;SDS011;989;53.016;8.346;2023-09-08T04:12:22;12.00;;;7.23;;
1977;SDS011;989;53.016;8.346;2023-09-08T04:14:48;10.80;;;7.77;;
1977;SDS011;989;53.016;8.346;2023-09-08T04:17:14;12.40;;;8.07;;
1977;SDS011;989;53.016;8.346;2023-09-08T04:19:40;13.90;;;7.97;;
1977;SDS011;989;53.016;8.346;2023-09-08T04:22:06;20.50;;;8.63;;
1977;SDS011;989;53.016;8.346;2023-09-08T04:24:36;11.13;;;7.53;;
1977;SDS011;989;53.016;8.346;2023-09-08T04:27:02;12.43;;;8.53;;
1977;SDS011;989;53.016;8.346;2023-09-08T04:29:28;12.60;;;8.90;;
1977;SDS011;989;53.016;8.346;2023-09-08T04:31:54;13.70;;;8.30;;
1977;SDS011;989;53.016;8.346;2023-09-08T04:34:21;9.47;;;7.50;;
1977;SDS011;989;53.016;8.346;2023-09-08T04:36:47;14.40;;;7.20;;
1977;SDS011;989;53.016;8.346;2023-09-08T04:39:13;13.23;;;7.60;;
1977;SDS011;989;53.016;8.346;2023-09-08T04:41:40;12.63;;;8.27;;
1977;SDS011;989;53.016;8.346;2023-09-08T04:44:06;12.67;;;8.00;;
1977;SDS011;989;53.016;8.346;2023-09-08T04:46:33;19.77;;;9.10;;
1977;SDS011;989;53.016;8.346;2023-09-08T04:49:00;12.30;;;8.57;;
1977;SDS011;989;53.016;8.346;2023-09-08T04:51:26;24.70;;;8.83;;
1977;SDS011;989;53.016;8.346;2023-09-08T04:53:52;18.03;;;9.27;;
1977;SDS011;989;53.016;8.346;2023-09-08T04:56:18;15.93;;;9.40;;
1977;SDS011;989;53.016;8.346;2023-09-08T04:58:44;17.40;;;8.03;;
1977;SDS011;989;53.016;8.346;2023-09-08T05:01:10;11.70;;;8.60;;
1977;SDS011;989;53.016;8.346;2023-09-08T05:03:36;11.70;;;7.73;;
1977;SDS011;989;53.016;8.346;2023-09-08T05:06:02;12.57;;;8.90;;
1977;SDS011;989;53.016;8.346;2023-09-08T05:08:28;11.33;;;8.00;;
1977;SDS011;989;53.016;8.346;2023-09-08T05:10:55;13.93;;;8.50;;
1977;SDS011;989;53.016;8.346;2023-09-08T05:13:21;15.13;;;8.63;;
1977;SDS011;989;53.016;8.346;2023-09-08T05:15:51;16.53;;;9.13;;
1977;SDS011;989;53.016;8.346;2023-09-08T05:18:25;12.80;;;8.53;;
1977;SDS011;989;53.016;8.346;2023-09-08T05:20:51;19.40;;;8.80;;
1977;SDS011;989;53.016;8.346;2023-09-08T05:23:18;11.73;;;8.50;;
1977;SDS011;989;53.016;8.346;2023-09-08T05:25:44;14.10;;;7.70;;
1977;SDS011;989;53.016;8.346;2023-09-08T05:28:10;11.37;;;8.07;;
1977;SDS011;989;53.016;8.346;2023-09-08T05:30:36;14.07;;;9.33;;
1977;SDS011;989;53.016;8.346;2023-09-08T05:33:02;11.30;;;8.13;;
1977;SDS011;989;53.016;8.346;2023-09-08T05:35:29;12.00;;;7.63;;
1977;SDS011;989;53.016;8.346;2023-09-08T05:37:55;12.07;;;8.13;;
1977;SDS011;989;53.016;8.346;2023-09-08T05:40:21;13.07;;;8.57;;
1977;SDS011;989;53.016;8.346;2023-09-08T05:42:49;18.17;;;9.80;;
1977;SDS011;989;53.016;8.346;2023-09-08T05:45:16;12.07;;;8.23;;
1977;SDS011;989;53.016;8.346;2023-09-08T05:47:42;13.30;;;8.67;;
1977;SDS011;989;53.016;8.346;2023-09-08T05:50:08;15.30;;;8.90;;
1977;SDS011;989;53.016;8.346;2023-09-08T05:52:34;12.20;;;8.03;;
1977;SDS011;989;53.016;8.346;2023-09-08T05:55:00;13.17;;;8.10;;
1977;SDS011;989;53.016;8.346;2023-09-08T05:57:26;11.03;;;7.37;;
1977;SDS011;989;53.016;8.346;2023-09-08T05:59:52;12.77;;;7.57;;
1977;SDS011;989;53.016;8.346;2023-09-08T06:02:18;11.43;;;8.80;;
1977;SDS011;989;53.016;8.346;2023-09-08T06:04:44;13.80;;;8.00;;
1977;SDS011;989;53.016;8.346;2023-09-08T06:07:11;9.43;;;7.00;;
1977;SDS011;989;53.016;8.346;2023-09-08T06:09:37;10.17;;;7.70;;
1977;SDS011;989;53.016;8.346;2023-09-08T06:12:03;17.97;;;7.80;;
1977;SDS011;989;53.016;8.346;2023-09-08T06:14:29;11.87;;;8.13;;
1977;SDS011;989;53.016;8.346;2023-09-08T06:16:55;16.00;;;8.47;;
1977;SDS011;989;53.016;8.346;2023-09-08T06:19:21;10.60;;;8.10;;
1977;SDS011;989;53.016;8.346;2023-09-08T06:21:47;22.93;;;8.07;;
1977;SDS011;989;53.016;8.346;2023-09-08T06:24:13;13.70;;;8.37;;
1977;SDS011;989;53.016;8.346;2023-09-08T06:26:39;14.73;;;8.53;;
1977;SDS011;989;53.016;8.346;2023-09-08T06:29:07;12.10;;;7.30;;
1977;SDS011;989;53.016;8.346;2023-09-08T06:31:33;9.30;;;7.97;;
1977;SDS011;989;53.016;8.346;2023-09-08T06:33:59;11.93;;;7.33;;
1977;SDS011;989;53.016;8.346;2023-09-08T06:36:26;12.00;;;8.20;;
1977;SDS011;989;53.016;8.346;2023-09-08T06:38:52;14.70;;;8.23;;
1977;SDS011;989;53.016;8.346;2023-09-08T06:41:18;11.70;;;8.03;;
1977;SDS011;989;53.016;8.346;2023-09-08T06:43:44;12.40;;;8.77;;
1977;SDS011;989;53.016;8.346;2023-09-08T06:46:10;11.17;;;8.20;;
1977;SDS011;989;53.016;8.346;2023-09-08T06:48:36;14.77;;;8.30;;
1977;SDS011;989;53.016;8.346;2023-09-08T06:51:02;12.63;;;8.37;;
1977;SDS011;989;53.016;8.346;2023-09-08T06:53:28;15.07;;;9.40;;
1977;SDS011;989;53.016;8.346;2023-09-08T06:55:55;12.40;;;8.90;;
1977;SDS011;989;53.016;8.346;2023-09-08T06:58:22;8.70;;;7.80;;
1977;SDS011;989;53.016;8.346;2023-09-08T07:00:49;11.97;;;8.07;;
1977;SDS011;989;53.016;8.346;2023-09-08T07:03:18;13.80;;;7.80;;
1977;SDS011;989;53.016;8.346;2023-09-08T07:05:44;13.90;;;8.50;;
1977;SDS011;989;53.016;8.346;2023-09-08T07:08:11;12.40;;;8.57;;
1977;SDS011;989;53.016;8.346;2023-09-08T07:10:37;9.70;;;7.83;;
1977;SDS011;989;53.016;8.346;2023-09-08T07:13:03;9.83;;;8.17;;
1977;SDS011;989;53.016;8.346;2023-09-08T07:15:29;9.47;;;7.80;;
1977;SDS011;989;53.016;8.346;2023-09-08T07:17:55;14.07;;;9.43;;
1977;SDS011;989;53.016;8.346;2023-09-08T07:20:21;10.87;;;8.10;;
1977;SDS011;989;53.016;8.346;2023-09-08T07:22:47;12.87;;;8.63;;
1977;SDS011;989;53.016;8.346;2023-09-08T07:25:13;19.27;;;9.37;;
1977;SDS011;989;53.016;8.346;2023-09-08T07:27:40;16.13;;;9.93;;
1977;SDS011;989;53.016;8.346;2023-09-08T07:30:06;13.93;;;11.67;;
1977;SDS011;989;53.016;8.346;2023-09-08T07:32:32;13.20;;;11.80;;
1977;SDS011;989;53.016;8.346;2023-09-08T07:34:58;13.87;;;11.80;;
1977;SDS011;989;53.016;8.346;2023-09-08T07:37:24;16.30;;;13.70;;
1977;SDS011;989;53.016;8.346;2023-09-08T07:39:51;13.97;;;12.67;;
1977;SDS011;989;53.016;8.346;2023-09-08T07:42:17;17.53;;;13.37;;
1977;SDS011;989;53.016;8.346;2023-09-08T07:44:44;13.30;;;12.20;;
1977;SDS011;989;53.016;8.346;2023-09-08T07:47:10;14.37;;;12.97;;
1977;SDS011;989;53.016;8.346;2023-09-08T07:49:36;16.50;;;14.10;;
1977;SDS011;989;53.016;8.346;2023-09-08T07:52:02;15.53;;;14.03;;
1977;SDS011;989;53.016;8.346;2023-09-08T07:54:29;15.23;;;13.83;;
1977;SDS011;989;53.016;8.346;2023-09-08T07:56:55;17.77;;;15.87;;
1977;SDS011;989;53.016;8.346;2023-09-08T07:59:22;16.07;;;14.67;;
1977;SDS011;989;53.016;8.346;2023-09-08T08:01:48;24.43;;;14.07;;
1977;SDS011;989;53.016;8.346;2023-09-08T08:04:14;21.17;;;14.63;;
1977;SDS011;989;53.016;8.346;2023-09-08T08:06:40;19.30;;;14.77;;
1977;SDS011;989;53.016;8.346;2023-09-08T08:09:06;16.77;;;14.43;;
1977;SDS011;989;53.016;8.346;2023-09-08T08:11:32;15.90;;;14.20;;
1977;SDS011;989;53.016;8.346;2023-09-08T08:13:59;16.00;;;14.60;;
1977;SDS011;989;53.016;8.346;2023-09-08T08:16:26;16.30;;;14.73;;
1977;SDS011;989;53.016;8.346;2023-09-08T08:18:52;15.60;;;14.20;;
1977;SDS011;989;53.016;8.346;2023-09-08T08:21:18;15.60;;;14.43;;
1977;SDS011;989;53.016;8.346;2023-09-08T08:23:44;15.93;;;14.30;;
1977;SDS011;989;53.016;8.346;2023-09-08T08:26:10;18.33;;;15.00;;
1977;SDS011;989;53.016;8.346;2023-09-08T08:28:36;17.13;;;15.53;;
1977;SDS011;989;53.016;8.346;2023-09-08T08:31:02;17.00;;;15.70;;
1977;SDS011;989;53.016;8.346;2023-09-08T08:33:29;19.53;;;16.10;;
1977;SDS011;989;53.016;8.346;2023-09-08T08:35:55;19.57;;;17.77;;
1977;SDS011;989;53.016;8.346;2023-09-08T08:38:22;17.37;;;15.63;;
1977;SDS011;989;53.016;8.346;2023-09-08T08:40:48;16.77;;;15.40;;
1977;SDS011;989;53.016;8.346;2023-09-08T08:43:14;21.73;;;16.23;;
1977;SDS011;989;53.016;8.346;2023-09-08T08:45:41;21.57;;;15.97;;
1977;SDS011;989;53.016;8.346;2023-09-08T08:48:08;18.67;;;17.20;;
1977;SDS011;989;53.016;8.346;2023-09-08T08:50:37;19.37;;;17.73;;
1977;SDS011;989;53.016;8.346;2023-09-08T08:53:04;18.97;;;17.43;;
1977;SDS011;989;53.016;8.346;2023-09-08T08:55:30;19.07;;;17.63;;
1977;SDS011;989;53.016;8.346;2023-09-08T08:58:02;18.43;;;16.83;;
1977;SDS011;989;53.016;8.346;2023-09-08T09:00:29;18.60;;;17.20;;
1977;SDS011;989;53.016;8.346;2023-09-08T09:02:55;17.30;;;15.90;;
1977;SDS011;989;53.016;8.346;2023-09-08T09:05:23;16.70;;;15.27;;
1977;SDS011;989;53.016;8.346;2023-09-08T09:07:50;18.10;;;16.90;;
1977;SDS011;989;53.016;8.346;2023-09-08T09:10:16;19.27;;;17.67;;
1977;SDS011;989;53.016;8.346;2023-09-08T09:12:43;20.27;;;18.40;;
1977;SDS011;989;53.016;8.346;2023-09-08T09:15:09;18.53;;;17.03;;
1977;SDS011;989;53.016;8.346;2023-09-08T09:17:36;23.13;;;17.40;;
1977;SDS011;989;53.016;8.346;2023-09-08T09:20:13;17.50;;;16.20;;
1977;SDS011;989;53.016;8.346;2023-09-08T09:22:40;17.50;;;16.20;;
1977;SDS011;989;53.016;8.346;2023-09-08T09:25:08;20.17;;;18.53;;
1977;SDS011;989;53.016;8.346;2023-09-08T09:27:35;19.07;;;17.57;;
1977;SDS011;989;53.016;8.346;2023-09-08T09:30:03;18.50;;;17.00;;
1977;SDS011;989;53.016;8.346;2023-09-08T09:32:30;18.47;;;16.53;;
1977;SDS011;989;53.016;8.346;2023-09-08T09:34:57;19.20;;;17.10;;
1977;SDS011;989;53.016;8.346;2023-09-08T09:37:26;19.70;;;18.23;;
1977;SDS011;989;53.016;8.346;2023-09-08T09:39:53;18.47;;;16.97;;
1977;SDS011;989;53.016;8.346;2023-09-08T09:42:19;17.93;;;16.63;;
1977;SDS011;989;53.016;8.346;2023-09-08T09:44:47;20.53;;;17.57;;
1977;SDS011;989;53.016;8.346;2023-09-08T09:47:13;20.03;;;18.53;;
1977;SDS011;989;53.016;8.346;2023-09-08T09:49:43;20.30;;;18.33;;
1977;SDS011;989;53.016;8.346;2023-09-08T09:52:11;19.17;;;17.77;;
1977;SDS011;989;53.016;8.346;2023-09-08T09:54:41;20.30;;;18.80;;
1977;SDS011;989;53.016;8.346;2023-09-08T09:57:09;19.00;;;17.30;;
1977;SDS011;989;53.016;8.346;2023-09-08T09:59:36;18.30;;;17.00;;
1977;SDS011;989;53.016;8.346;2023-09-08T10:02:02;20.10;;;18.70;;
1977;SDS011;989;53.016;8.346;2023-09-08T10:04:28;18.60;;;17.30;;
1977;SDS011;989;53.016;8.346;2023-09-08T10:06:55;19.70;;;17.90;;
1977;SDS011;989;53.016;8.346;2023-09-08T10:09:23;19.27;;;17.77;;
1977;SDS011;989;53.016;8.346;2023-09-08T10:11:50;18.93;;;17.63;;
1977;SDS011;989;53.016;8.346;2023-09-08T10:14:17;23.73;;;18.27;;
1977;SDS011;989;53.016;8.346;2023-09-08T10:16:45;19.43;;;17.60;;
1977;SDS011;989;53.016;8.346;2023-09-08T10:19:17;19.37;;;17.63;;
1977;SDS011;989;53.016;8.346;2023-09-08T10:21:46;20.40;;;18.90;;
1977;SDS011;989;53.016;8.346;2023-09-08T10:24:22;29.10;;;18.03;;
1977;SDS011;989;53.016;8.346;2023-09-08T10:26:54;19.90;;;18.13;;
1977;SDS011;989;53.016;8.346;2023-09-08T10:29:31;19.60;;;18.00;;
1977;SDS011;989;53.016;8.346;2023-09-08T10:31:58;19.40;;;17.90;;
1977;SDS011;989;53.016;8.346;2023-09-08T10:34:25;19.47;;;18.27;;
1977;SDS011;989;53.016;8.346;2023-09-08T10:36:52;19.80;;;17.90;;
1977;SDS011;989;53.016;8.346;2023-09-08T10:47:14;18.70;;;17.40;;
1977;SDS011;989;53.016;8.346;2023-09-08T10:49:45;20.70;;;19.00;;
1977;SDS011;989;53.016;8.346;2023-09-08T10:52:12;19.40;;;18.00;;
1977;SDS011;989;53.016;8.346;2023-09-08T10:54:43;19.53;;;17.83;;
1977;SDS011;989;53.016;8.346;2023-09-08T10:57:13;19.13;;;17.70;;
1977;SDS011;989;53.016;8.346;2023-09-08T10:59:45;19.27;;;17.97;;
1977;SDS011;989;53.016;8.346;2023-09-08T11:05:12;20.67;;;19.00;;
1977;SDS011;989;53.016;8.346;2023-09-08T11:07:41;22.93;;;19.00;;
1977;SDS011;989;53.016;8.346;2023-09-08T11:10:09;21.00;;;19.60;;
1977;SDS011;989;53.016;8.346;2023-09-08T11:12:36;20.60;;;19.13;;
1977;SDS011;989;53.016;8.346;2023-09-08T11:15:03;18.83;;;17.20;;
1977;SDS011;989;53.016;8.346;2023-09-08T11:17:34;21.10;;;18.53;;
1977;SDS011;989;53.016;8.346;2023-09-08T11:20:04;19.17;;;17.60;;
1977;SDS011;989;53.016;8.346;2023-09-08T11:22:38;19.00;;;17.53;;
1977;SDS011;989;53.016;8.346;2023-09-08T11:25:08;18.87;;;17.47;;
1977;SDS011;989;53.016;8.346;2023-09-08T11:27:36;19.63;;;18.23;;
1977;SDS011;989;53.016;8.346;2023-09-08T11:30:05;19.37;;;17.87;;
1977;SDS011;989;53.016;8.346;2023-09-08T11:32:33;19.23;;;17.83;;
1977;SDS011;989;53.016;8.346;2023-09-08T11:35:06;19.53;;;18.33;;
1977;SDS011;989;53.016;8.346;2023-09-08T11:37:35;20.83;;;19.13;;
1977;SDS011;989;53.016;8.346;2023-09-08T11:40:03;20.40;;;18.90;;
1977;SDS011;989;53.016;8.346;2023-09-08T11:42:34;22.13;;;20.13;;
1977;SDS011;989;53.016;8.346;2023-09-08T11:45:00;21.20;;;19.53;;
1977;SDS011;989;53.016;8.346;2023-09-08T11:47:28;20.57;;;19.20;;
1977;SDS011;989;53.016;8.346;2023-09-08T11:49:55;20.17;;;18.87;;
1977;SDS011;989;53.016;8.346;2023-09-08T11:52:24;20.13;;;18.73;;
1977;SDS011;989;53.016;8.346;2023-09-08T11:54:50;22.03;;;20.63;;
1977;SDS011;989;53.016;8.346;2023-09-08T11:57:17;21.27;;;19.77;;
1977;SDS011;989;53.016;8.346;2023-09-08T11:59:43;22.30;;;20.27;;
1977;SDS011;989;53.016;8.346;2023-09-08T12:02:13;22.33;;;21.03;;
1977;SDS011;989;53.016;8.346;2023-09-08T12:04:39;20.10;;;18.80;;
1977;SDS011;989;53.016;8.346;2023-09-08T12:07:07;21.40;;;20.00;;
1977;SDS011;989;53.016;8.346;2023-09-08T12:09:40;20.20;;;18.80;;
1977;SDS011;989;53.016;8.346;2023-09-08T12:12:10;20.67;;;19.20;;
1977;SDS011;989;53.016;8.346;2023-09-08T12:14:40;21.23;;;19.47;;
1977;SDS011;989;53.016;8.346;2023-09-08T12:17:07;21.63;;;19.93;;
1977;SDS011;989;53.016;8.346;2023-09-08T12:19:34;23.10;;;21.43;;
1977;SDS011;989;53.016;8.346;2023-09-08T12:22:03;20.43;;;19.13;;
1977;SDS011;989;53.016;8.346;2023-09-08T12:27:21;21.33;;;19.87;;
1977;SDS011;989;53.016;8.346;2023-09-08T12:29:52;21.77;;;20.30;;
1977;SDS011;989;53.016;8.346;2023-09-08T12:32:22;21.90;;;19.93;;
1977;SDS011;989;53.016;8.346;2023-09-08T12:34:48;21.77;;;20.07;;
1977;SDS011;989;53.016;8.346;2023-09-08T12:37:19;22.10;;;20.60;;
1977;SDS011;989;53.016;8.346;2023-09-08T12:39:48;21.97;;;20.33;;
1977;SDS011;989;53.016;8.346;2023-09-08T12:42:15;20.80;;;19.47;;
1977;SDS011;989;53.016;8.346;2023-09-08T12:44:42;20.80;;;19.40;;
1977;SDS011;989;53.016;8.346;2023-09-08T12:47:09;20.87;;;19.17;;
1977;SDS011;989;53.016;8.346;2023-09-08T12:49:37;27.43;;;19.13;;
1977;SDS011;989;53.016;8.346;2023-09-08T12:52:04;20.53;;;18.80;;
1977;SDS011;989;53.016;8.346;2023-09-08T12:54:30;20.87;;;18.63;;
1977;SDS011;989;53.016;8.346;2023-09-08T12:56:56;19.87;;;18.00;;
1977;SDS011;989;53.016;8.346;2023-09-08T12:59:22;19.43;;;18.00;;
1977;SDS011;989;53.016;8.346;2023-09-08T13:01:48;17.53;;;16.30;;
1977;SDS011;989;53.016;8.346;2023-09-08T13:04:14;17.77;;;16.47;;
1977;SDS011;989;53.016;8.346;2023-09-08T13:06:41;18.27;;;16.67;;
1977;SDS011;989;53.016;8.346;2023-09-08T13:09:08;17.43;;;16.23;;
1977;SDS011;989;53.016;8.346;2023-09-08T13:11:34;17.70;;;16.57;;
1977;SDS011;989;53.016;8.346;2023-09-08T13:14:00;20.10;;;16.60;;
1977;SDS011;989;53.016;8.346;2023-09-08T13:16:26;20.70;;;19.50;;
1977;SDS011;989;53.016;8.346;2023-09-08T13:18:52;20.80;;;19.20;;
1977;SDS011;989;53.016;8.346;2023-09-08T13:21:18;19.90;;;18.60;;
1977;SDS011;989;53.016;8.346;2023-09-08T13:23:44;20.23;;;18.73;;
1977;SDS011;989;53.016;8.346;2023-09-08T13:26:10;17.80;;;16.70;;
1977;SDS011;989;53.016;8.346;2023-09-08T13:28:37;17.63;;;16.53;;
1977;SDS011;989;53.016;8.346;2023-09-08T13:31:03;20.40;;;18.70;;
1977;SDS011;989;53.016;8.346;2023-09-08T13:33:29;18.70;;;17.50;;
1977;SDS011;989;53.016;8.346;2023-09-08T13:35:55;18.67;;;17.37;;
1977;SDS011;989;53.016;8.346;2023-09-08T13:38:21;17.83;;;16.73;;
1977;SDS011;989;53.016;8.346;2023-09-08T13:40:47;20.10;;;18.53;;
1977;SDS011;989;53.016;8.346;2023-09-08T13:43:14;20.00;;;18.40;;
1977;SDS011;989;53.016;8.346;2023-09-08T13:45:40;19.40;;;18.20;;
1977;SDS011;989;53.016;8.346;2023-09-08T13:48:07;17.87;;;16.77;;
1977;SDS011;989;53.016;8.346;2023-09-08T13:50:34;19.43;;;18.03;;
1977;SDS011;989;53.016;8.346;2023-09-08T13:53:02;20.17;;;18.20;;
1977;SDS011;989;53.016;8.346;2023-09-08T13:55:29;19.43;;;18.23;;
1977;SDS011;989;53.016;8.346;2023-09-08T13:57:55;20.40;;;18.90;;
1977;SDS011;989;53.016;8.346;2023-09-08T14:00:21;21.13;;;19.73;;
1977;SDS011;989;53.016;8.346;2023-09-08T14:02:48;20.00;;;18.50;;
1977;SDS011;989;53.016;8.346;2023-09-08T14:05:14;19.83;;;18.53;;
1977;SDS011;989;53.016;8.346;2023-09-08T14:07:40;19.73;;;18.33;;
1977;SDS011;989;53.016;8.346;2023-09-08T14:10:06;20.63;;;17.50;;
1977;SDS011;989;53.016;8.346;2023-09-08T14:12:33;20.10;;;18.40;;
1977;SDS011;989;53.016;8.346;2023-09-08T14:14:59;19.40;;;18.10;;
1977;SDS011;989;53.016;8.346;2023-09-08T14:17:25;17.90;;;16.80;;
1977;SDS011;989;53.016;8.346;2023-09-08T14:19:51;18.73;;;17.63;;
1977;SDS011;989;53.016;8.346;2023-09-08T14:22:18;19.63;;;18.30;;
1977;SDS011;989;53.016;8.346;2023-09-08T14:24:44;19.80;;;18.33;;
1977;SDS011;989;53.016;8.346;2023-09-08T14:27:10;19.00;;;17.70;;
1977;SDS011;989;53.016;8.346;2023-09-08T14:29:36;18.97;;;17.77;;
1977;SDS011;989;53.016;8.346;2023-09-08T14:32:02;18.93;;;17.73;;
1977;SDS011;989;53.016;8.346;2023-09-08T14:34:28;20.10;;;18.70;;
1977;SDS011;989;53.016;8.346;2023-09-08T14:36:54;19.03;;;17.80;;
1977;SDS011;989;53.016;8.346;2023-09-08T14:39:20;19.60;;;18.40;;
1977;SDS011;989;53.016;8.346;2023-09-08T14:41:47;18.90;;;17.87;;
1977;SDS011;989;53.016;8.346;2023-09-08T14:44:15;20.53;;;19.30;;
1977;SDS011;989;53.016;8.346;2023-09-08T14:46:41;21.17;;;19.77;;
1977;SDS011;989;53.016;8.346;2023-09-08T14:49:07;19.30;;;17.87;;
1977;SDS011;989;53.016;8.346;2023-09-08T14:51:33;20.57;;;19.27;;
1977;SDS011;989;53.016;8.346;2023-09-08T14:53:59;19.80;;;18.60;;
1977;SDS011;989;53.016;8.346;2023-09-08T14:56:25;19.03;;;17.83;;
1977;SDS011;989;53.016;8.346;2023-09-08T14:58:51;21.47;;;20.07;;
1977;SDS011;989;53.016;8.346;2023-09-08T15:01:17;21.50;;;20.10;;
1977;SDS011;989;53.016;8.346;2023-09-08T15:03:44;20.00;;;18.63;;
1977;SDS011;989;53.016;8.346;2023-09-08T15:06:10;21.10;;;19.80;;
1977;SDS011;989;53.016;8.346;2023-09-08T15:08:37;22.03;;;19.93;;
1977;SDS011;989;53.016;8.346;2023-09-08T15:11:07;20.27;;;19.07;;
1977;SDS011;989;53.016;8.346;2023-09-08T15:13:33;20.00;;;18.70;;
1977;SDS011;989;53.016;8.346;2023-09-08T15:16:00;21.43;;;19.80;;
1977;SDS011;989;53.016;8.346;2023-09-08T15:18:27;20.23;;;19.03;;
1977;SDS011;989;53.016;8.346;2023-09-08T15:20:53;19.70;;;18.40;;
1977;SDS011;989;53.016;8.346;2023-09-08T15:23:20;20.83;;;19.47;;